Indian Rock, Texas
Current Conditions -  °F | °C
As of 12:15 AM on Thursday 23 Oct 2014 (Local Time) from KOSA Reporting Station
Clear Clear  
Wind Chill: 61°   Ceiling: Unl
Heat Index: 61°   Visibility: 10mi
Dew Point: 52°   Wind: 5mph
Humidity: 73%   Direction: 90°E
Pressure: 30.15"   Gusts: NA
Location:  32.7353°N, 94.9492°W
Report Text: KOSA 230515Z AUTO 09004KT 10SM CLR 16/11 A3015 RMK AO1 T01600112
Loading
Personal Weather Stations






























Interactive Weather Map
Tropical Storm Tracking
New forecast layout! Learn more

10-Day Weather Forecast

Advertisements
Track Severe Weather on mobile